createdAt,value
2019-02-19T00:00:07.375Z,1009.20
2019-02-19T00:01:07.388Z,1009.23
2019-02-19T00:02:07.400Z,1009.20
2019-02-19T00:03:07.415Z,1009.18
2019-02-19T00:04:07.426Z,1009.18
2019-02-19T00:05:07.688Z,1009.15
2019-02-19T00:06:07.457Z,1009.17
2019-02-19T00:07:07.462Z,1009.16
2019-02-19T00:08:07.474Z,1009.17
2019-02-19T00:09:07.487Z,1009.17
2019-02-19T00:10:07.498Z,1009.19
2019-02-19T00:11:07.513Z,1009.15
2019-02-19T00:12:07.522Z,1009.21
2019-02-19T00:13:07.535Z,1009.18
2019-02-19T00:14:07.545Z,1009.17
2019-02-19T00:15:08.599Z,1009.09
2019-02-19T00:16:07.573Z,1009.10
2019-02-19T00:17:07.586Z,1009.11
2019-02-19T00:18:07.599Z,1009.13
2019-02-19T00:19:07.610Z,1009.13
2019-02-19T00:20:07.619Z,1009.17
2019-02-19T00:21:07.631Z,1009.14
2019-02-19T00:22:07.644Z,1009.11
2019-02-19T00:23:07.664Z,1009.15
2019-02-19T00:24:07.674Z,1009.09
2019-02-19T00:25:07.933Z,1009.12
2019-02-19T00:26:07.694Z,1009.09
2019-02-19T00:27:07.707Z,1009.02
2019-02-19T00:28:07.720Z,1009.07
2019-02-19T00:29:07.729Z,1009.07
2019-02-19T00:30:07.738Z,1009.05
2019-02-19T00:31:07.754Z,1009.06
2019-02-19T00:32:07.768Z,1009.06
2019-02-19T00:33:07.777Z,1009.01
2019-02-19T00:34:07.790Z,1009.04
2019-02-19T00:35:07.804Z,1009.01
2019-02-19T00:36:07.819Z,1009.07
2019-02-19T00:37:07.827Z,1009.06
2019-02-19T00:38:07.840Z,1009.02
2019-02-19T00:39:07.850Z,1009.05
2019-02-19T00:40:07.862Z,1009.02
2019-02-19T00:41:07.873Z,1009.02
2019-02-19T00:42:07.889Z,1008.97
2019-02-19T00:43:07.901Z,1008.98
2019-02-19T00:44:07.913Z,1008.99
2019-02-19T00:45:16.273Z,1008.94
2019-02-19T00:46:07.937Z,1008.99
2019-02-19T00:47:07.948Z,1008.92
2019-02-19T00:48:07.957Z,1008.96
2019-02-19T00:49:07.970Z,1008.92
2019-02-19T00:50:07.983Z,1008.96
2019-02-19T00:51:08.002Z,1008.90
2019-02-19T00:52:08.007Z,1008.90
2019-02-19T00:53:08.047Z,1008.93
2019-02-19T00:54:08.036Z,1008.87
2019-02-19T00:55:08.045Z,1008.89
2019-02-19T00:56:08.054Z,1008.91
2019-02-19T00:57:08.070Z,1008.93
2019-02-19T00:58:08.078Z,1008.90
2019-02-19T00:59:08.089Z,1008.87
2019-02-19T01:00:08.361Z,1008.93
2019-02-19T01:01:08.116Z,1008.87
2019-02-19T01:02:08.129Z,1008.87
2019-02-19T01:03:08.145Z,1008.84
2019-02-19T01:04:08.155Z,1008.87
2019-02-19T01:05:08.165Z,1008.86
2019-02-19T01:06:08.175Z,1008.84
2019-02-19T01:07:08.190Z,1008.87
2019-02-19T01:08:08.200Z,1008.81
2019-02-19T01:09:08.212Z,1008.82
2019-02-19T01:10:08.226Z,1008.78
2019-02-19T01:11:08.237Z,1008.78
2019-02-19T01:12:08.250Z,1008.78
2019-02-19T01:13:08.262Z,1008.75
2019-02-19T01:14:08.272Z,1008.73
2019-02-19T01:15:08.283Z,1008.73
2019-02-19T01:16:08.295Z,1008.74
2019-02-19T01:17:08.307Z,1008.73
2019-02-19T01:18:08.322Z,1008.76
2019-02-19T01:19:08.334Z,1008.74
2019-02-19T01:20:08.595Z,1008.74
2019-02-19T01:21:08.353Z,1008.71
2019-02-19T01:22:08.369Z,1008.70
2019-02-19T01:23:08.381Z,1008.68
2019-02-19T01:24:08.395Z,1008.62
2019-02-19T01:25:08.405Z,1008.62
2019-02-19T01:26:08.416Z,1008.63
2019-02-19T01:27:08.427Z,1008.58
2019-02-19T01:28:08.440Z,1008.62
2019-02-19T01:29:08.453Z,1008.61
2019-02-19T01:30:08.463Z,1008.61
2019-02-19T01:31:08.479Z,1008.59
2019-02-19T01:32:08.489Z,1008.60
2019-02-19T01:33:08.500Z,1008.58
2019-02-19T01:34:08.515Z,1008.56
2019-02-19T01:35:08.528Z,1008.56
2019-02-19T01:36:08.537Z,1008.54
2019-02-19T01:37:08.548Z,1008.54
2019-02-19T01:38:08.561Z,1008.51
2019-02-19T01:39:08.570Z,1008.47
2019-02-19T01:40:08.993Z,1008.51
2019-02-19T01:41:08.595Z,1008.47
2019-02-19T01:42:08.606Z,1008.46
2019-02-19T01:43:08.620Z,1008.43
2019-02-19T01:44:08.633Z,1008.42
2019-02-19T01:45:08.969Z,1008.36
2019-02-19T01:46:08.656Z,1008.37
2019-02-19T01:47:08.666Z,1008.38
2019-02-19T01:48:08.678Z,1008.40
2019-02-19T01:49:08.690Z,1008.39
2019-02-19T01:50:08.702Z,1008.38
2019-02-19T01:51:08.712Z,1008.41
2019-02-19T01:52:08.727Z,1008.44
2019-02-19T01:53:08.736Z,1008.38
2019-02-19T01:54:08.751Z,1008.35
2019-02-19T01:55:08.763Z,1008.39
2019-02-19T01:56:08.774Z,1008.39
2019-02-19T01:57:08.787Z,1008.39
2019-02-19T01:58:08.798Z,1008.41
2019-02-19T01:59:08.808Z,1008.41
2019-02-19T02:00:08.819Z,1008.38
2019-02-19T02:01:08.832Z,1008.37
2019-02-19T02:02:08.843Z,1008.35
2019-02-19T02:03:08.871Z,1008.34
2019-02-19T02:04:08.905Z,1008.33
2019-02-19T02:05:09.133Z,1008.37
2019-02-19T02:06:08.941Z,1008.36
2019-02-19T02:07:08.955Z,1008.34
2019-02-19T02:08:08.940Z,1008.35
2019-02-19T02:09:09.004Z,1008.36
2019-02-19T02:10:09.007Z,1008.37
2019-02-19T02:11:09.000Z,1008.31
2019-02-19T02:12:09.027Z,1008.26
2019-02-19T02:13:09.017Z,1008.25
2019-02-19T02:14:08.995Z,1008.32
2019-02-19T02:15:09.002Z,1008.34
2019-02-19T02:16:09.010Z,1008.40
2019-02-19T02:17:09.026Z,1008.35
2019-02-19T02:18:09.034Z,1008.30
2019-02-19T02:19:09.048Z,1008.29
2019-02-19T02:20:09.059Z,1008.24
2019-02-19T02:21:09.066Z,1008.23
2019-02-19T02:22:09.084Z,1008.25
2019-02-19T02:23:09.091Z,1008.23
2019-02-19T02:24:09.106Z,1008.25
2019-02-19T02:25:09.116Z,1008.26
2019-02-19T02:26:09.127Z,1008.22
2019-02-19T02:27:09.142Z,1008.23
2019-02-19T02:28:09.150Z,1008.25
2019-02-19T02:29:09.162Z,1008.23
2019-02-19T02:30:09.176Z,1008.27
2019-02-19T02:31:09.190Z,1008.28
2019-02-19T02:32:09.197Z,1008.26
2019-02-19T02:33:09.209Z,1008.20
2019-02-19T02:34:09.223Z,1008.21
2019-02-19T02:35:11.270Z,1008.24
2019-02-19T02:36:09.251Z,1008.20
2019-02-19T02:37:09.261Z,1008.23
2019-02-19T02:38:09.270Z,1008.17
2019-02-19T02:39:09.285Z,1008.17
2019-02-19T02:40:09.301Z,1008.16
2019-02-19T02:41:09.309Z,1008.13
2019-02-19T02:42:09.320Z,1008.08
2019-02-19T02:43:09.329Z,1008.07
2019-02-19T02:44:09.340Z,1008.12
2019-02-19T02:45:09.600Z,1008.07
2019-02-19T02:46:09.372Z,1008.09
2019-02-19T02:47:09.375Z,1008.02
2019-02-19T02:48:09.388Z,1008.04
2019-02-19T02:49:09.403Z,1008.04
2019-02-19T02:50:09.413Z,1008.03
2019-02-19T02:51:09.423Z,1008.05
2019-02-19T02:52:09.433Z,1008.07
2019-02-19T02:53:09.444Z,1008.02
2019-02-19T02:54:09.455Z,1008.07
2019-02-19T02:55:09.472Z,1008.02
2019-02-19T02:56:09.482Z,1008.05
2019-02-19T02:57:09.498Z,1007.99
2019-02-19T02:58:09.506Z,1008.02
2019-02-19T02:59:09.515Z,1008.02
2019-02-19T03:00:09.777Z,1008.03
2019-02-19T03:01:09.540Z,1008.01
2019-02-19T03:02:09.553Z,1008.05
2019-02-19T03:03:09.563Z,1008.04
2019-02-19T03:04:09.579Z,1008.06
2019-02-19T03:05:09.594Z,1008.06
2019-02-19T03:06:09.602Z,1008.04
2019-02-19T03:07:09.611Z,1008.08
2019-02-19T03:08:09.622Z,1008.04
2019-02-19T03:09:09.635Z,1008.04
2019-02-19T03:10:09.646Z,1008.04
2019-02-19T03:11:09.657Z,1008.04
2019-02-19T03:12:09.670Z,1008.05
2019-02-19T03:13:09.686Z,1008.05
2019-02-19T03:14:09.695Z,1008.02
2019-02-19T03:15:09.705Z,1008.00
2019-02-19T03:16:09.718Z,1008.02
2019-02-19T03:17:09.729Z,1008.01
2019-02-19T03:18:09.742Z,1007.97
2019-02-19T03:19:09.757Z,1007.96
2019-02-19T03:20:10.012Z,1007.94
2019-02-19T03:21:09.776Z,1007.99
2019-02-19T03:22:09.786Z,1007.98
2019-02-19T03:23:09.801Z,1008.02
2019-02-19T03:24:09.812Z,1007.97
2019-02-19T03:25:09.826Z,1007.98
2019-02-19T03:26:09.836Z,1008.00
2019-02-19T03:27:09.848Z,1007.98
2019-02-19T03:28:09.858Z,1007.95
2019-02-19T03:29:09.871Z,1007.97
2019-02-19T03:30:09.892Z,1007.97
2019-02-19T03:31:09.900Z,1007.95
2019-02-19T03:32:09.911Z,1007.96
2019-02-19T03:33:09.978Z,1007.94
2019-02-19T03:34:09.955Z,1007.90
2019-02-19T03:35:09.942Z,1007.92
2019-02-19T03:36:09.954Z,1007.93
2019-02-19T03:37:09.962Z,1007.94
2019-02-19T03:38:09.977Z,1007.93
2019-02-19T03:39:09.986Z,1007.93
2019-02-19T03:40:09.998Z,1007.98
2019-02-19T03:41:10.008Z,1007.97
2019-02-19T03:42:10.022Z,1007.98
2019-02-19T03:43:10.034Z,1007.97
2019-02-19T03:44:10.044Z,1007.99
2019-02-19T03:45:10.307Z,1007.99
2019-02-19T03:46:12.463Z,1007.98
2019-02-19T03:47:10.083Z,1008.03
2019-02-19T03:48:10.092Z,1007.99
2019-02-19T03:49:10.111Z,1008.00
2019-02-19T03:50:10.122Z,1008.02
2019-02-19T03:51:10.127Z,1008.04
2019-02-19T03:52:10.136Z,1008.03
2019-02-19T03:53:10.151Z,1008.03
2019-02-19T03:54:10.193Z,1008.04
2019-02-19T03:55:10.175Z,1008.03
2019-02-19T03:56:10.187Z,1008.05
2019-02-19T03:57:10.197Z,1008.03
2019-02-19T03:58:10.211Z,1008.04
2019-02-19T03:59:10.226Z,1008.12
2019-02-19T04:00:10.234Z,1008.08
2019-02-19T04:01:10.251Z,1008.10
2019-02-19T04:02:10.257Z,1008.05
2019-02-19T04:03:10.269Z,1008.05
2019-02-19T04:04:10.302Z,1008.05
2019-02-19T04:05:10.292Z,1008.02
2019-02-19T04:06:10.302Z,1008.05
2019-02-19T04:07:10.322Z,1008.03
2019-02-19T04:08:10.328Z,1008.03
2019-02-19T04:09:10.338Z,1008.04
2019-02-19T04:10:10.351Z,1008.07
2019-02-19T04:11:10.360Z,1008.12
2019-02-19T04:12:10.375Z,1008.09
2019-02-19T04:13:10.383Z,1008.07
2019-02-19T04:14:10.404Z,1008.07
2019-02-19T04:15:10.791Z,1008.10
2019-02-19T04:16:10.427Z,1008.11
2019-02-19T04:17:10.430Z,1008.11
2019-02-19T04:18:10.442Z,1008.10
2019-02-19T04:19:10.456Z,1008.08
2019-02-19T04:20:10.475Z,1008.07
2019-02-19T04:21:10.479Z,1008.09
2019-02-19T04:22:10.493Z,1008.09
2019-02-19T04:23:10.501Z,1008.04
2019-02-19T04:24:10.510Z,1008.04
2019-02-19T04:25:10.773Z,1008.02
2019-02-19T04:26:10.538Z,1008.04
2019-02-19T04:27:10.548Z,1008.05
2019-02-19T04:28:10.559Z,1008.07
2019-02-19T04:29:10.571Z,1008.10
2019-02-19T04:30:10.581Z,1008.05
2019-02-19T04:31:10.598Z,1008.07
2019-02-19T04:32:10.606Z,1008.06
2019-02-19T04:33:10.617Z,1008.04
2019-02-19T04:34:10.634Z,1008.02
2019-02-19T04:35:10.643Z,1008.00
2019-02-19T04:36:10.653Z,1007.94
2019-02-19T04:37:10.671Z,1007.95
2019-02-19T04:38:10.730Z,1007.95
2019-02-19T04:39:10.762Z,1007.96
2019-02-19T04:40:10.954Z,1007.96
2019-02-19T04:41:10.752Z,1007.97
2019-02-19T04:42:10.754Z,1007.98
2019-02-19T04:43:10.820Z,1007.94
2019-02-19T04:44:10.808Z,1007.99
2019-02-19T04:45:10.826Z,1007.96
2019-02-19T04:46:10.815Z,1007.95
2019-02-19T04:47:10.812Z,1007.97
2019-02-19T04:48:10.809Z,1008.01
2019-02-19T04:49:10.805Z,1007.98
2019-02-19T04:50:10.815Z,1008.00
2019-02-19T04:51:10.846Z,1007.97
2019-02-19T04:52:10.838Z,1007.98
2019-02-19T04:53:10.852Z,1007.97
2019-02-19T04:54:10.863Z,1007.95
2019-02-19T04:55:10.873Z,1007.95
2019-02-19T04:56:10.885Z,1007.94
2019-02-19T04:57:10.894Z,1007.92
2019-02-19T04:58:10.907Z,1007.97
2019-02-19T04:59:10.921Z,1007.95
2019-02-19T05:00:10.937Z,1007.99
2019-02-19T05:01:10.945Z,1007.99
2019-02-19T05:02:10.955Z,1007.98
2019-02-19T05:03:10.966Z,1008.01
2019-02-19T05:04:10.977Z,1007.95
2019-02-19T05:05:10.989Z,1008.00
2019-02-19T05:06:11.003Z,1008.00
2019-02-19T05:07:11.015Z,1008.02
2019-02-19T05:08:11.025Z,1007.99
2019-02-19T05:09:11.038Z,1007.99
2019-02-19T05:10:11.055Z,1007.99
2019-02-19T05:11:11.058Z,1007.98
2019-02-19T05:12:11.077Z,1007.99
2019-02-19T05:13:11.083Z,1008.00
2019-02-19T05:14:11.095Z,1008.00
2019-02-19T05:15:11.109Z,1007.97
2019-02-19T05:16:11.133Z,1008.00
2019-02-19T05:17:11.129Z,1007.95
2019-02-19T05:18:11.145Z,1007.97
2019-02-19T05:19:11.161Z,1007.98
2019-02-19T05:20:11.164Z,1007.97
2019-02-19T05:21:11.178Z,1007.99
2019-02-19T05:22:11.189Z,1008.00
2019-02-19T05:23:11.199Z,1007.99
2019-02-19T05:24:11.208Z,1007.99
2019-02-19T05:25:11.220Z,1008.01
2019-02-19T05:26:11.232Z,1007.95
2019-02-19T05:27:11.251Z,1007.95
2019-02-19T05:28:11.261Z,1007.97
2019-02-19T05:29:11.268Z,1008.01
2019-02-19T05:30:11.280Z,1008.02
2019-02-19T05:31:11.292Z,1007.98
2019-02-19T05:32:11.301Z,1007.99
2019-02-19T05:33:11.311Z,1008.01
2019-02-19T05:34:11.324Z,1007.99
2019-02-19T05:35:11.336Z,1007.96
2019-02-19T05:36:11.409Z,1007.98
2019-02-19T05:37:11.360Z,1007.97
2019-02-19T05:38:11.370Z,1007.99
2019-02-19T05:39:11.386Z,1007.98
2019-02-19T05:40:11.397Z,1007.96
2019-02-19T05:41:11.411Z,1008.01
2019-02-19T05:42:11.419Z,1007.96
2019-02-19T05:43:11.430Z,1007.96
2019-02-19T05:44:11.440Z,1008.01
2019-02-19T05:45:11.704Z,1008.02
2019-02-19T05:46:11.465Z,1008.06
2019-02-19T05:47:11.483Z,1008.00
2019-02-19T05:48:11.488Z,1008.01
2019-02-19T05:49:11.502Z,1008.05
2019-02-19T05:50:11.513Z,1008.01
2019-02-19T05:51:11.523Z,1008.00
2019-02-19T05:52:11.536Z,1008.03
2019-02-19T05:53:11.547Z,1008.00
2019-02-19T05:54:11.561Z,1007.97
2019-02-19T05:55:11.570Z,1007.97
2019-02-19T05:56:11.580Z,1008.00
2019-02-19T05:57:11.591Z,1008.03
2019-02-19T05:58:11.605Z,1008.04
2019-02-19T05:59:11.619Z,1008.05
2019-02-19T06:00:11.929Z,1008.10
2019-02-19T06:01:11.640Z,1008.08
2019-02-19T06:02:11.654Z,1008.12
2019-02-19T06:03:11.662Z,1008.11
2019-02-19T06:04:11.673Z,1008.10
2019-02-19T06:05:11.688Z,1008.13
2019-02-19T06:06:11.698Z,1008.20
2019-02-19T06:07:11.710Z,1008.17
2019-02-19T06:08:11.720Z,1008.14
2019-02-19T06:09:11.732Z,1008.12
2019-02-19T06:10:11.743Z,1008.13
2019-02-19T06:11:11.758Z,1008.17
2019-02-19T06:12:11.769Z,1008.20
2019-02-19T06:13:11.782Z,1008.20
2019-02-19T06:14:11.793Z,1008.24
2019-02-19T06:15:11.803Z,1008.19
2019-02-19T06:16:11.811Z,1008.23
2019-02-19T06:17:11.825Z,1008.20
2019-02-19T06:18:11.848Z,1008.26
2019-02-19T06:19:11.853Z,1008.20
2019-02-19T06:20:12.113Z,1008.24
2019-02-19T06:21:11.877Z,1008.22
2019-02-19T06:22:11.888Z,1008.22
2019-02-19T06:23:11.901Z,1008.26
2019-02-19T06:24:11.911Z,1008.23
2019-02-19T06:25:11.923Z,1008.20
2019-02-19T06:26:11.959Z,1008.20
2019-02-19T06:27:11.950Z,1008.21
2019-02-19T06:28:11.957Z,1008.25
2019-02-19T06:29:11.971Z,1008.28
2019-02-19T06:30:11.981Z,1008.28
2019-02-19T06:31:11.994Z,1008.27
2019-02-19T06:32:12.006Z,1008.28
2019-02-19T06:33:12.026Z,1008.30
2019-02-19T06:34:12.035Z,1008.27
2019-02-19T06:35:12.041Z,1008.28
2019-02-19T06:36:12.049Z,1008.31
2019-02-19T06:37:12.067Z,1008.32
2019-02-19T06:38:12.074Z,1008.34
2019-02-19T06:39:12.087Z,1008.34
2019-02-19T06:40:12.351Z,1008.41
2019-02-19T06:41:12.112Z,1008.36
2019-02-19T06:42:12.124Z,1008.39
2019-02-19T06:43:12.137Z,1008.45
2019-02-19T06:44:12.150Z,1008.42
2019-02-19T06:45:12.162Z,1008.43
2019-02-19T06:46:12.176Z,1008.43
2019-02-19T06:47:12.702Z,1008.47
2019-02-19T06:48:12.198Z,1008.44
2019-02-19T06:49:12.221Z,1008.45
2019-02-19T06:50:12.223Z,1008.47
2019-02-19T06:51:12.237Z,1008.48
2019-02-19T06:52:12.248Z,1008.52
2019-02-19T06:53:12.263Z,1008.53
2019-02-19T06:54:12.275Z,1008.55
2019-02-19T06:55:12.287Z,1008.58
2019-02-19T06:56:12.299Z,1008.64
2019-02-19T06:57:12.316Z,1008.64
2019-02-19T06:58:12.325Z,1008.64
2019-02-19T06:59:12.335Z,1008.64
2019-02-19T07:00:12.596Z,1008.67
2019-02-19T07:01:12.363Z,1008.68
2019-02-19T07:02:12.373Z,1008.71
2019-02-19T07:03:12.387Z,1008.69
2019-02-19T07:04:12.397Z,1008.65
2019-02-19T07:05:12.412Z,1008.64
2019-02-19T07:06:12.425Z,1008.67
2019-02-19T07:07:12.438Z,1008.67
2019-02-19T07:08:12.449Z,1008.65
2019-02-19T07:09:12.460Z,1008.67
2019-02-19T07:10:12.482Z,1008.68
2019-02-19T07:11:12.515Z,1008.67
2019-02-19T07:12:12.564Z,1008.68
2019-02-19T07:13:12.571Z,1008.70
2019-02-19T07:14:12.561Z,1008.69
2019-02-19T07:15:12.565Z,1008.71
2019-02-19T07:16:12.632Z,1008.76
2019-02-19T07:17:15.727Z,1008.76
2019-02-19T07:18:12.626Z,1008.71
2019-02-19T07:19:12.627Z,1008.78
2019-02-19T07:20:12.882Z,1008.75
2019-02-19T07:21:12.622Z,1008.76
2019-02-19T07:22:12.633Z,1008.77
2019-02-19T07:23:12.641Z,1008.73
2019-02-19T07:24:12.654Z,1008.82
2019-02-19T07:25:12.669Z,1008.82
2019-02-19T07:26:12.683Z,1008.79
2019-02-19T07:27:12.695Z,1008.77
2019-02-19T07:28:12.706Z,1008.80
2019-02-19T07:29:12.723Z,1008.76
2019-02-19T07:30:12.737Z,1008.75
2019-02-19T07:31:12.751Z,1008.78
2019-02-19T07:32:12.765Z,1008.84
2019-02-19T07:33:12.779Z,1008.79
2019-02-19T07:34:12.796Z,1008.76
2019-02-19T07:35:12.801Z,1008.80
2019-02-19T07:36:12.815Z,1008.78
2019-02-19T07:37:12.833Z,1008.82
2019-02-19T07:38:12.841Z,1008.79
2019-02-19T07:39:12.858Z,1008.84
2019-02-19T07:40:12.871Z,1008.87
2019-02-19T07:41:12.885Z,1008.86
2019-02-19T07:42:12.899Z,1008.91
2019-02-19T07:43:12.916Z,1008.90
2019-02-19T07:44:12.922Z,1008.93
2019-02-19T07:45:12.941Z,1008.89
2019-02-19T07:46:12.954Z,1008.87
2019-02-19T07:47:12.967Z,1008.92
2019-02-19T07:48:12.980Z,1008.90
2019-02-19T07:49:12.996Z,1008.96
2019-02-19T07:50:13.008Z,1008.96
2019-02-19T07:51:13.024Z,1008.95
2019-02-19T07:52:13.041Z,1008.96
2019-02-19T07:53:13.053Z,1008.95
2019-02-19T07:54:13.066Z,1008.96
2019-02-19T07:55:13.080Z,1008.94
2019-02-19T07:56:13.092Z,1008.99
2019-02-19T07:57:13.107Z,1008.98
2019-02-19T07:58:13.123Z,1009.00
2019-02-19T07:59:13.136Z,1008.99
2019-02-19T08:00:13.151Z,1009.03
2019-02-19T08:01:13.164Z,1009.02
2019-02-19T08:02:13.179Z,1009.06
2019-02-19T08:03:13.197Z,1009.07
2019-02-19T08:04:13.210Z,1009.05
2019-02-19T08:05:13.224Z,1009.01
2019-02-19T08:06:13.252Z,1009.04
2019-02-19T08:07:13.251Z,1009.05
2019-02-19T08:08:13.266Z,1009.02
2019-02-19T08:09:13.283Z,1009.03
2019-02-19T08:10:13.295Z,1009.03
2019-02-19T08:11:13.312Z,1009.04
2019-02-19T08:12:13.328Z,1009.05
2019-02-19T08:13:13.344Z,1009.04
2019-02-19T08:14:13.358Z,1009.04
2019-02-19T08:15:13.369Z,1009.03
2019-02-19T08:16:13.384Z,1009.07
2019-02-19T08:17:13.402Z,1009.06
2019-02-19T08:18:13.416Z,1009.08
2019-02-19T08:19:13.435Z,1009.09
2019-02-19T08:20:15.993Z,1009.09
2019-02-19T08:21:13.467Z,1009.06
2019-02-19T08:22:13.480Z,1009.05
2019-02-19T08:23:13.495Z,1009.05
2019-02-19T08:24:13.510Z,1009.09
2019-02-19T08:25:13.527Z,1009.10
2019-02-19T08:26:13.541Z,1009.10
2019-02-19T08:27:13.557Z,1009.10
2019-02-19T08:28:13.577Z,1009.14
2019-02-19T08:29:14.100Z,1009.09
2019-02-19T08:30:13.609Z,1009.13
2019-02-19T08:31:13.625Z,1009.14
2019-02-19T08:32:13.637Z,1009.13
2019-02-19T08:33:13.657Z,1009.15
2019-02-19T08:34:13.671Z,1009.14
2019-02-19T08:35:13.684Z,1009.21
2019-02-19T08:36:13.702Z,1009.19
2019-02-19T08:37:13.716Z,1009.23
2019-02-19T08:38:13.733Z,1009.23
2019-02-19T08:39:13.757Z,1009.23
2019-02-19T08:40:13.768Z,1009.22
2019-02-19T08:41:13.784Z,1009.19
2019-02-19T08:42:13.803Z,1009.20
2019-02-19T08:43:13.814Z,1009.27
2019-02-19T08:44:13.832Z,1009.25
2019-02-19T08:45:13.848Z,1009.22
2019-02-19T08:46:13.871Z,1009.21
2019-02-19T08:47:13.885Z,1009.23
2019-02-19T08:48:13.911Z,1009.21
2019-02-19T08:49:13.915Z,1009.25
2019-02-19T08:50:13.932Z,1009.26
2019-02-19T08:51:13.956Z,1009.36
2019-02-19T08:52:13.971Z,1009.33
2019-02-19T08:53:14.004Z,1009.30
2019-02-19T08:54:14.006Z,1009.33
2019-02-19T08:55:14.018Z,1009.40
2019-02-19T08:56:14.031Z,1009.35
2019-02-19T08:57:14.051Z,1009.39
2019-02-19T08:58:14.068Z,1009.44
2019-02-19T08:59:14.088Z,1009.42
2019-02-19T09:00:14.106Z,1009.39
2019-02-19T09:01:14.124Z,1009.44
2019-02-19T09:02:14.143Z,1009.47
2019-02-19T09:03:14.160Z,1009.46
2019-02-19T09:04:14.173Z,1009.51
2019-02-19T09:05:14.192Z,1009.41
2019-02-19T09:06:14.209Z,1009.53
2019-02-19T09:07:14.226Z,1009.51
2019-02-19T09:08:14.242Z,1009.51
2019-02-19T09:09:14.263Z,1009.57
2019-02-19T09:10:14.276Z,1009.52
2019-02-19T09:11:14.297Z,1009.47
2019-02-19T09:12:14.315Z,1009.46
2019-02-19T09:13:14.350Z,1009.49
2019-02-19T09:14:14.423Z,1009.49
2019-02-19T09:15:14.418Z,1009.44
2019-02-19T09:16:14.418Z,1009.44
2019-02-19T09:17:14.434Z,1009.43
2019-02-19T09:18:14.484Z,1009.49
2019-02-19T09:19:14.495Z,1009.49
2019-02-19T09:20:14.479Z,1009.49
2019-02-19T09:21:14.477Z,1009.50
2019-02-19T09:22:14.494Z,1009.47
2019-02-19T09:23:14.507Z,1009.50
2019-02-19T09:24:14.524Z,1009.48
2019-02-19T09:25:14.544Z,1009.50
2019-02-19T09:26:14.566Z,1009.49
2019-02-19T09:27:14.585Z,1009.55
2019-02-19T09:28:14.606Z,1009.52
2019-02-19T09:29:14.619Z,1009.53
2019-02-19T09:30:14.633Z,1009.54
2019-02-19T09:31:14.651Z,1009.55
2019-02-19T09:32:14.671Z,1009.57
2019-02-19T09:33:14.690Z,1009.51
2019-02-19T09:34:14.705Z,1009.54
2019-02-19T09:35:14.726Z,1009.55
2019-02-19T09:36:14.741Z,1009.60
2019-02-19T09:37:14.766Z,1009.53
2019-02-19T09:38:14.777Z,1009.61
2019-02-19T09:39:14.799Z,1009.61
2019-02-19T09:40:14.822Z,1009.62
2019-02-19T09:41:14.836Z,1009.57
2019-02-19T09:42:14.852Z,1009.56
2019-02-19T09:43:14.868Z,1009.61
2019-02-19T09:44:14.887Z,1009.65
2019-02-19T09:45:14.904Z,1009.68
2019-02-19T09:46:14.925Z,1009.61
2019-02-19T09:47:14.973Z,1009.63
2019-02-19T09:48:14.960Z,1009.66
2019-02-19T09:49:14.978Z,1009.67
2019-02-19T09:50:14.997Z,1009.74
2019-02-19T09:51:15.018Z,1009.74
2019-02-19T09:52:15.034Z,1009.60
2019-02-19T09:53:15.052Z,1009.66
2019-02-19T09:54:15.070Z,1009.62
2019-02-19T09:55:15.086Z,1009.64
2019-02-19T09:56:15.104Z,1009.68
2019-02-19T09:57:15.129Z,1009.64
2019-02-19T09:58:15.142Z,1009.70
2019-02-19T09:59:15.170Z,1009.72
2019-02-19T10:00:15.181Z,1009.69
2019-02-19T10:01:15.199Z,1009.72
2019-02-19T10:02:15.218Z,1009.69
2019-02-19T10:03:15.232Z,1009.72
2019-02-19T10:04:15.252Z,1009.72
2019-02-19T10:05:15.269Z,1009.80
2019-02-19T10:06:15.291Z,1009.84
2019-02-19T10:07:15.309Z,1009.84
2019-02-19T10:08:15.327Z,1009.79
2019-02-19T10:09:15.344Z,1009.78
2019-02-19T10:10:15.362Z,1009.81
2019-02-19T10:11:15.382Z,1009.84
2019-02-19T10:12:15.397Z,1009.84
2019-02-19T10:13:15.422Z,1009.82
2019-02-19T10:14:15.436Z,1009.89
2019-02-19T10:15:15.453Z,1009.83
2019-02-19T10:16:15.477Z,1009.87
2019-02-19T10:17:15.491Z,1009.95
2019-02-19T10:18:15.509Z,1009.93
2019-02-19T10:19:15.529Z,1009.92
2019-02-19T10:20:15.547Z,1009.97
2019-02-19T10:21:15.566Z,1009.92
2019-02-19T10:22:15.585Z,1009.91
2019-02-19T10:23:15.602Z,1009.91
2019-02-19T10:24:15.627Z,1009.90
2019-02-19T10:25:15.640Z,1009.92
2019-02-19T10:26:15.657Z,1009.94
2019-02-19T10:27:15.673Z,1009.90
2019-02-19T10:28:15.690Z,1009.86
2019-02-19T10:29:15.708Z,1009.94
2019-02-19T10:30:15.730Z,1010.01
2019-02-19T10:31:15.752Z,1009.95
2019-02-19T10:32:15.767Z,1009.96
2019-02-19T10:33:15.786Z,1009.93
2019-02-19T10:34:15.807Z,1009.98
2019-02-19T10:35:15.820Z,1010.00
2019-02-19T10:36:15.841Z,1009.99
2019-02-19T10:37:15.885Z,1009.99
2019-02-19T10:38:15.877Z,1010.03
2019-02-19T10:39:15.909Z,1009.98
2019-02-19T10:40:15.913Z,1010.07
2019-02-19T10:41:15.931Z,1010.03
2019-02-19T10:42:15.951Z,1010.02
2019-02-19T10:43:15.975Z,1010.06
2019-02-19T10:44:15.987Z,1010.06
2019-02-19T10:45:16.005Z,1010.08
2019-02-19T10:46:16.028Z,1010.08
2019-02-19T10:47:16.043Z,1010.13
2019-02-19T10:48:19.052Z,1010.09
2019-02-19T10:49:16.076Z,1010.09
2019-02-19T10:50:16.097Z,1010.08
2019-02-19T10:51:16.131Z,1010.11
2019-02-19T10:52:16.134Z,1010.06
2019-02-19T10:53:16.151Z,1010.03
2019-02-19T10:54:16.171Z,1010.02
2019-02-19T10:55:16.192Z,1010.05
2019-02-19T10:56:16.287Z,1010.03
2019-02-19T10:57:16.292Z,1010.04
2019-02-19T10:58:22.462Z,1010.04
2019-02-19T10:59:16.283Z,1010.05
2019-02-19T11:00:16.350Z,1010.10
2019-02-19T11:01:16.350Z,1010.05
2019-02-19T11:02:16.355Z,1010.07
2019-02-19T11:03:16.367Z,1010.09
2019-02-19T11:04:16.354Z,1010.18
2019-02-19T11:05:16.371Z,1010.15
2019-02-19T11:06:16.390Z,1010.15
2019-02-19T11:07:16.407Z,1010.12
2019-02-19T11:08:16.423Z,1010.15
2019-02-19T11:09:16.442Z,1010.13
2019-02-19T11:10:16.464Z,1010.16
2019-02-19T11:11:16.478Z,1010.10
2019-02-19T11:12:16.496Z,1010.15
2019-02-19T11:13:16.513Z,1010.10
2019-02-19T11:14:16.536Z,1010.09
2019-02-19T11:15:17.489Z,1010.12
2019-02-19T11:16:16.575Z,1010.12
2019-02-19T11:17:16.594Z,1010.08
2019-02-19T11:18:16.617Z,1010.03
2019-02-19T11:19:16.636Z,1010.04
2019-02-19T11:20:16.649Z,1009.99
2019-02-19T11:21:19.750Z,1010.06
2019-02-19T11:22:16.685Z,1010.06
2019-02-19T11:23:16.708Z,1010.03
2019-02-19T11:24:16.726Z,1010.01
2019-02-19T11:25:16.743Z,1010.02
2019-02-19T11:26:16.762Z,1009.97
2019-02-19T11:27:16.943Z,1009.95
2019-02-19T11:28:16.817Z,1009.96
2019-02-19T11:29:16.817Z,1009.98
2019-02-19T11:30:16.844Z,1009.93
2019-02-19T11:31:16.857Z,1009.94
2019-02-19T11:32:16.877Z,1009.92
2019-02-19T11:33:16.894Z,1009.98
2019-02-19T11:34:16.915Z,1009.94
2019-02-19T11:35:16.932Z,1009.95
2019-02-19T11:36:16.948Z,1009.93
2019-02-19T11:37:16.983Z,1009.93
2019-02-19T11:38:16.989Z,1009.96
2019-02-19T11:39:17.012Z,1009.95
2019-02-19T11:40:17.029Z,1009.91
2019-02-19T11:41:17.049Z,1009.90
2019-02-19T11:42:17.066Z,1009.88
2019-02-19T11:43:17.086Z,1009.93
2019-02-19T11:44:17.105Z,1009.93
2019-02-19T11:45:17.135Z,1009.89
2019-02-19T11:46:17.144Z,1009.94
2019-02-19T11:47:17.161Z,1009.91
2019-02-19T11:48:19.102Z,1009.93
2019-02-19T11:49:17.199Z,1009.90
2019-02-19T11:50:17.217Z,1009.90
2019-02-19T11:51:17.242Z,1009.85
2019-02-19T11:52:17.266Z,1009.89
2019-02-19T11:53:17.276Z,1009.91
2019-02-19T11:54:17.296Z,1009.87
2019-02-19T11:55:17.316Z,1009.90
2019-02-19T11:56:17.331Z,1009.94
2019-02-19T11:57:17.353Z,1009.89
2019-02-19T11:58:17.376Z,1009.89
2019-02-19T11:59:17.392Z,1009.99
2019-02-19T12:00:17.408Z,1009.97
2019-02-19T12:01:17.428Z,1009.89
2019-02-19T12:02:17.445Z,1009.93
2019-02-19T12:03:17.469Z,1010.03
2019-02-19T12:04:17.485Z,1010.01
2019-02-19T12:05:17.528Z,1009.95